sensor_id;sensor_type;location;lat;lon;timestamp;P1;durP1;ratioP1;P2;durP2;ratioP2
20462;SDS011;10390;53.566;9.980;2023-11-22T00:01:06;12.80;;;7.97;;
20462;SDS011;10390;53.566;9.980;2023-11-22T00:03:35;11.50;;;7.53;;
20462;SDS011;10390;53.566;9.980;2023-11-22T00:06:00;11.65;;;7.97;;
20462;SDS011;10390;53.566;9.980;2023-11-22T00:08:29;11.02;;;7.55;;
20462;SDS011;10390;53.566;9.980;2023-11-22T00:10:54;10.48;;;7.60;;
20462;SDS011;10390;53.566;9.980;2023-11-22T00:13:20;11.25;;;8.00;;
20462;SDS011;10390;53.566;9.980;2023-11-22T00:15:47;9.55;;;7.18;;
20462;SDS011;10390;53.566;9.980;2023-11-22T00:18:15;13.90;;;8.18;;
20462;SDS011;10390;53.566;9.980;2023-11-22T00:20:41;12.10;;;7.38;;
20462;SDS011;10390;53.566;9.980;2023-11-22T00:23:06;10.05;;;7.00;;
20462;SDS011;10390;53.566;9.980;2023-11-22T00:25:32;10.63;;;7.10;;
20462;SDS011;10390;53.566;9.980;2023-11-22T00:27:58;9.23;;;6.78;;
20462;SDS011;10390;53.566;9.980;2023-11-22T00:30:24;10.95;;;7.15;;
20462;SDS011;10390;53.566;9.980;2023-11-22T00:32:50;10.65;;;6.88;;
20462;SDS011;10390;53.566;9.980;2023-11-22T00:35:16;13.13;;;7.10;;
20462;SDS011;10390;53.566;9.980;2023-11-22T00:37:42;10.50;;;7.32;;
20462;SDS011;10390;53.566;9.980;2023-11-22T00:40:07;9.80;;;6.75;;
20462;SDS011;10390;53.566;9.980;2023-11-22T00:42:37;9.20;;;7.22;;
20462;SDS011;10390;53.566;9.980;2023-11-22T00:45:04;9.80;;;6.78;;
20462;SDS011;10390;53.566;9.980;2023-11-22T00:47:31;9.82;;;7.82;;
20462;SDS011;10390;53.566;9.980;2023-11-22T00:49:57;9.27;;;6.90;;
20462;SDS011;10390;53.566;9.980;2023-11-22T00:52:23;10.10;;;7.43;;
20462;SDS011;10390;53.566;9.980;2023-11-22T00:54:49;10.27;;;6.93;;
20462;SDS011;10390;53.566;9.980;2023-11-22T00:57:15;9.57;;;7.03;;
20462;SDS011;10390;53.566;9.980;2023-11-22T00:59:40;9.48;;;6.85;;
20462;SDS011;10390;53.566;9.980;2023-11-22T01:02:06;8.60;;;6.65;;
20462;SDS011;10390;53.566;9.980;2023-11-22T01:04:33;8.10;;;6.75;;
20462;SDS011;10390;53.566;9.980;2023-11-22T01:07:01;9.07;;;7.00;;
20462;SDS011;10390;53.566;9.980;2023-11-22T01:09:26;8.52;;;6.40;;
20462;SDS011;10390;53.566;9.980;2023-11-22T01:11:53;10.07;;;6.82;;
20462;SDS011;10390;53.566;9.980;2023-11-22T01:14:19;9.90;;;6.57;;
20462;SDS011;10390;53.566;9.980;2023-11-22T01:16:45;11.45;;;6.97;;
20462;SDS011;10390;53.566;9.980;2023-11-22T01:19:10;9.85;;;7.15;;
20462;SDS011;10390;53.566;9.980;2023-11-22T01:21:36;8.60;;;6.68;;
20462;SDS011;10390;53.566;9.980;2023-11-22T01:24:02;11.13;;;7.35;;
20462;SDS011;10390;53.566;9.980;2023-11-22T01:26:28;9.35;;;7.30;;
20462;SDS011;10390;53.566;9.980;2023-11-22T01:28:53;10.93;;;7.45;;
20462;SDS011;10390;53.566;9.980;2023-11-22T01:31:19;11.30;;;6.90;;
20462;SDS011;10390;53.566;9.980;2023-11-22T01:33:46;10.07;;;7.28;;
20462;SDS011;10390;53.566;9.980;2023-11-22T01:36:13;9.10;;;7.00;;
20462;SDS011;10390;53.566;9.980;2023-11-22T01:38:40;9.02;;;7.25;;
20462;SDS011;10390;53.566;9.980;2023-11-22T01:41:06;8.95;;;7.15;;
20462;SDS011;10390;53.566;9.980;2023-11-22T01:43:32;8.73;;;7.05;;
20462;SDS011;10390;53.566;9.980;2023-11-22T01:45:57;8.20;;;6.50;;
20462;SDS011;10390;53.566;9.980;2023-11-22T01:48:23;10.15;;;6.80;;
20462;SDS011;10390;53.566;9.980;2023-11-22T01:50:49;9.82;;;7.03;;
20462;SDS011;10390;53.566;9.980;2023-11-22T01:53:15;8.68;;;6.20;;
20462;SDS011;10390;53.566;9.980;2023-11-22T01:55:42;9.13;;;6.82;;
20462;SDS011;10390;53.566;9.980;2023-11-22T01:58:09;9.77;;;6.70;;
20462;SDS011;10390;53.566;9.980;2023-11-22T02:00:36;8.55;;;6.50;;
20462;SDS011;10390;53.566;9.980;2023-11-22T02:03:16;8.55;;;6.50;;
20462;SDS011;10390;53.566;9.980;2023-11-22T02:05:44;8.38;;;6.90;;
20462;SDS011;10390;53.566;9.980;2023-11-22T02:08:10;8.25;;;6.60;;
20462;SDS011;10390;53.566;9.980;2023-11-22T02:10:37;8.00;;;6.03;;
20462;SDS011;10390;53.566;9.980;2023-11-22T02:13:03;8.50;;;6.57;;
20462;SDS011;10390;53.566;9.980;2023-11-22T02:15:32;9.23;;;6.47;;
20462;SDS011;10390;53.566;9.980;2023-11-22T02:17:58;7.82;;;6.35;;
20462;SDS011;10390;53.566;9.980;2023-11-22T02:20:24;7.50;;;6.18;;
20462;SDS011;10390;53.566;9.980;2023-11-22T02:22:49;7.97;;;6.15;;
20462;SDS011;10390;53.566;9.980;2023-11-22T02:25:15;9.15;;;6.82;;
20462;SDS011;10390;53.566;9.980;2023-11-22T02:27:41;7.70;;;5.75;;
20462;SDS011;10390;53.566;9.980;2023-11-22T02:30:07;9.23;;;6.75;;
20462;SDS011;10390;53.566;9.980;2023-11-22T02:32:34;8.05;;;6.28;;
20462;SDS011;10390;53.566;9.980;2023-11-22T02:34:59;8.00;;;6.28;;
20462;SDS011;10390;53.566;9.980;2023-11-22T02:37:25;8.48;;;7.05;;
20462;SDS011;10390;53.566;9.980;2023-11-22T02:40:00;9.48;;;6.82;;
20462;SDS011;10390;53.566;9.980;2023-11-22T02:42:33;8.27;;;6.57;;
20462;SDS011;10390;53.566;9.980;2023-11-22T02:44:59;8.80;;;6.85;;
20462;SDS011;10390;53.566;9.980;2023-11-22T02:47:25;8.63;;;6.40;;
20462;SDS011;10390;53.566;9.980;2023-11-22T02:49:50;7.57;;;6.47;;
20462;SDS011;10390;53.566;9.980;2023-11-22T02:52:16;8.13;;;6.57;;
20462;SDS011;10390;53.566;9.980;2023-11-22T02:54:45;9.85;;;6.45;;
20462;SDS011;10390;53.566;9.980;2023-11-22T02:57:11;8.10;;;6.80;;
20462;SDS011;10390;53.566;9.980;2023-11-22T02:59:36;8.07;;;6.75;;
20462;SDS011;10390;53.566;9.980;2023-11-22T03:02:06;9.55;;;6.93;;
20462;SDS011;10390;53.566;9.980;2023-11-22T03:04:32;7.43;;;6.25;;
20462;SDS011;10390;53.566;9.980;2023-11-22T03:06:58;9.32;;;5.90;;
20462;SDS011;10390;53.566;9.980;2023-11-22T03:09:24;8.35;;;6.38;;
20462;SDS011;10390;53.566;9.980;2023-11-22T03:11:51;7.97;;;6.25;;
20462;SDS011;10390;53.566;9.980;2023-11-22T03:14:17;7.78;;;6.03;;
20462;SDS011;10390;53.566;9.980;2023-11-22T03:16:43;8.82;;;6.30;;
20462;SDS011;10390;53.566;9.980;2023-11-22T03:19:08;7.40;;;6.18;;
20462;SDS011;10390;53.566;9.980;2023-11-22T03:21:35;8.70;;;5.85;;
20462;SDS011;10390;53.566;9.980;2023-11-22T03:24:01;8.18;;;6.13;;
20462;SDS011;10390;53.566;9.980;2023-11-22T03:26:29;8.25;;;6.13;;
20462;SDS011;10390;53.566;9.980;2023-11-22T03:28:54;7.82;;;5.72;;
20462;SDS011;10390;53.566;9.980;2023-11-22T03:31:20;8.15;;;6.07;;
20462;SDS011;10390;53.566;9.980;2023-11-22T03:33:46;6.57;;;5.57;;
20462;SDS011;10390;53.566;9.980;2023-11-22T03:36:12;7.90;;;6.30;;
20462;SDS011;10390;53.566;9.980;2023-11-22T03:38:41;8.48;;;6.20;;
20462;SDS011;10390;53.566;9.980;2023-11-22T03:41:06;7.22;;;6.10;;
20462;SDS011;10390;53.566;9.980;2023-11-22T03:43:32;8.57;;;6.35;;
20462;SDS011;10390;53.566;9.980;2023-11-22T03:45:58;7.90;;;5.78;;
20462;SDS011;10390;53.566;9.980;2023-11-22T03:48:23;10.27;;;6.97;;
20462;SDS011;10390;53.566;9.980;2023-11-22T03:50:51;8.57;;;6.30;;
20462;SDS011;10390;53.566;9.980;2023-11-22T03:53:16;7.38;;;5.88;;
20462;SDS011;10390;53.566;9.980;2023-11-22T03:55:42;8.60;;;5.82;;
20462;SDS011;10390;53.566;9.980;2023-11-22T03:58:07;8.15;;;6.10;;
20462;SDS011;10390;53.566;9.980;2023-11-22T04:00:33;7.75;;;6.30;;
20462;SDS011;10390;53.566;9.980;2023-11-22T04:03:00;9.18;;;6.47;;
20462;SDS011;10390;53.566;9.980;2023-11-22T04:05:27;10.35;;;5.97;;
20462;SDS011;10390;53.566;9.980;2023-11-22T04:07:53;8.07;;;6.63;;
20462;SDS011;10390;53.566;9.980;2023-11-22T04:10:19;8.30;;;6.50;;
20462;SDS011;10390;53.566;9.980;2023-11-22T04:12:46;8.10;;;6.35;;
20462;SDS011;10390;53.566;9.980;2023-11-22T04:15:12;8.23;;;6.38;;
20462;SDS011;10390;53.566;9.980;2023-11-22T04:17:39;7.53;;;6.20;;
20462;SDS011;10390;53.566;9.980;2023-11-22T04:20:08;7.70;;;6.00;;
20462;SDS011;10390;53.566;9.980;2023-11-22T04:22:35;8.00;;;6.20;;
20462;SDS011;10390;53.566;9.980;2023-11-22T04:25:10;8.52;;;5.85;;
20462;SDS011;10390;53.566;9.980;2023-11-22T04:27:38;8.27;;;6.22;;
20462;SDS011;10390;53.566;9.980;2023-11-22T04:30:08;7.38;;;6.35;;
20462;SDS011;10390;53.566;9.980;2023-11-22T04:32:38;8.00;;;6.22;;
20462;SDS011;10390;53.566;9.980;2023-11-22T04:35:05;8.07;;;5.95;;
20462;SDS011;10390;53.566;9.980;2023-11-22T04:37:31;6.82;;;5.55;;
20462;SDS011;10390;53.566;9.980;2023-11-22T04:39:57;6.85;;;6.00;;
20462;SDS011;10390;53.566;9.980;2023-11-22T04:42:23;7.05;;;5.80;;
20462;SDS011;10390;53.566;9.980;2023-11-22T04:44:49;6.53;;;5.40;;
20462;SDS011;10390;53.566;9.980;2023-11-22T04:47:15;7.88;;;6.15;;
20462;SDS011;10390;53.566;9.980;2023-11-22T04:49:40;6.68;;;5.97;;
20462;SDS011;10390;53.566;9.980;2023-11-22T04:52:06;6.68;;;5.90;;
20462;SDS011;10390;53.566;9.980;2023-11-22T04:54:32;6.75;;;6.05;;
20462;SDS011;10390;53.566;9.980;2023-11-22T04:56:59;7.75;;;5.88;;
20462;SDS011;10390;53.566;9.980;2023-11-22T04:59:24;7.30;;;5.43;;
20462;SDS011;10390;53.566;9.980;2023-11-22T05:01:50;7.50;;;5.65;;
20462;SDS011;10390;53.566;9.980;2023-11-22T05:04:15;7.55;;;5.70;;
20462;SDS011;10390;53.566;9.980;2023-11-22T05:06:43;7.15;;;6.05;;
20462;SDS011;10390;53.566;9.980;2023-11-22T05:09:10;8.18;;;5.90;;
20462;SDS011;10390;53.566;9.980;2023-11-22T05:11:36;6.55;;;5.50;;
20462;SDS011;10390;53.566;9.980;2023-11-22T05:14:01;6.25;;;5.47;;
20462;SDS011;10390;53.566;9.980;2023-11-22T05:16:27;7.70;;;6.10;;
20462;SDS011;10390;53.566;9.980;2023-11-22T05:18:53;6.53;;;5.85;;
20462;SDS011;10390;53.566;9.980;2023-11-22T05:21:18;7.88;;;5.72;;
20462;SDS011;10390;53.566;9.980;2023-11-22T05:23:44;8.15;;;6.20;;
20462;SDS011;10390;53.566;9.980;2023-11-22T05:26:09;7.57;;;6.38;;
20462;SDS011;10390;53.566;9.980;2023-11-22T05:28:35;7.68;;;5.68;;
20462;SDS011;10390;53.566;9.980;2023-11-22T05:31:01;7.15;;;5.63;;
20462;SDS011;10390;53.566;9.980;2023-11-22T05:33:26;7.13;;;6.03;;
20462;SDS011;10390;53.566;9.980;2023-11-22T05:35:52;6.85;;;5.80;;
20462;SDS011;10390;53.566;9.980;2023-11-22T05:38:19;6.38;;;5.32;;
20462;SDS011;10390;53.566;9.980;2023-11-22T05:40:44;7.30;;;5.97;;
20462;SDS011;10390;53.566;9.980;2023-11-22T05:43:10;8.15;;;6.07;;
20462;SDS011;10390;53.566;9.980;2023-11-22T05:45:36;7.60;;;6.13;;
20462;SDS011;10390;53.566;9.980;2023-11-22T05:48:01;7.53;;;5.85;;
20462;SDS011;10390;53.566;9.980;2023-11-22T05:50:27;8.05;;;5.68;;
20462;SDS011;10390;53.566;9.980;2023-11-22T05:52:52;6.78;;;5.60;;
20462;SDS011;10390;53.566;9.980;2023-11-22T05:55:18;8.43;;;5.95;;
20462;SDS011;10390;53.566;9.980;2023-11-22T05:57:44;8.68;;;5.93;;
20462;SDS011;10390;53.566;9.980;2023-11-22T06:00:10;7.22;;;5.90;;
20462;SDS011;10390;53.566;9.980;2023-11-22T06:02:36;6.85;;;5.55;;
20462;SDS011;10390;53.566;9.980;2023-11-22T06:05:02;11.23;;;5.78;;
20462;SDS011;10390;53.566;9.980;2023-11-22T06:07:28;7.10;;;5.30;;
20462;SDS011;10390;53.566;9.980;2023-11-22T06:09:54;6.38;;;5.22;;
20462;SDS011;10390;53.566;9.980;2023-11-22T06:12:20;8.38;;;5.35;;
20462;SDS011;10390;53.566;9.980;2023-11-22T06:14:46;9.38;;;5.95;;
20462;SDS011;10390;53.566;9.980;2023-11-22T06:17:12;8.30;;;5.68;;
20462;SDS011;10390;53.566;9.980;2023-11-22T06:19:37;8.77;;;5.60;;
20462;SDS011;10390;53.566;9.980;2023-11-22T06:22:03;7.38;;;5.63;;
20462;SDS011;10390;53.566;9.980;2023-11-22T06:24:29;8.50;;;6.07;;
20462;SDS011;10390;53.566;9.980;2023-11-22T06:26:56;8.10;;;5.85;;
20462;SDS011;10390;53.566;9.980;2023-11-22T06:29:21;11.95;;;6.25;;
20462;SDS011;10390;53.566;9.980;2023-11-22T06:31:47;12.98;;;6.13;;
20462;SDS011;10390;53.566;9.980;2023-11-22T06:34:13;12.95;;;6.40;;
20462;SDS011;10390;53.566;9.980;2023-11-22T06:36:38;12.65;;;6.47;;
20462;SDS011;10390;53.566;9.980;2023-11-22T06:39:04;11.35;;;6.07;;
20462;SDS011;10390;53.566;9.980;2023-11-22T06:41:31;15.60;;;6.57;;
20462;SDS011;10390;53.566;9.980;2023-11-22T06:43:56;17.98;;;6.40;;
20462;SDS011;10390;53.566;9.980;2023-11-22T06:46:22;13.85;;;6.32;;
20462;SDS011;10390;53.566;9.980;2023-11-22T06:48:48;20.27;;;7.03;;
20462;SDS011;10390;53.566;9.980;2023-11-22T06:51:14;13.27;;;6.70;;
20462;SDS011;10390;53.566;9.980;2023-11-22T06:53:40;23.88;;;7.90;;
20462;SDS011;10390;53.566;9.980;2023-11-22T06:56:06;15.52;;;7.78;;
20462;SDS011;10390;53.566;9.980;2023-11-22T06:58:32;16.38;;;6.80;;
20462;SDS011;10390;53.566;9.980;2023-11-22T07:00:57;14.13;;;6.72;;
20462;SDS011;10390;53.566;9.980;2023-11-22T07:03:23;14.02;;;6.90;;
20462;SDS011;10390;53.566;9.980;2023-11-22T07:05:48;24.63;;;7.32;;
20462;SDS011;10390;53.566;9.980;2023-11-22T07:08:14;16.23;;;6.32;;
20462;SDS011;10390;53.566;9.980;2023-11-22T07:10:42;9.82;;;6.40;;
20462;SDS011;10390;53.566;9.980;2023-11-22T07:13:09;15.57;;;7.07;;
20462;SDS011;10390;53.566;9.980;2023-11-22T07:15:36;12.52;;;6.45;;
20462;SDS011;10390;53.566;9.980;2023-11-22T07:18:01;14.00;;;6.40;;
20462;SDS011;10390;53.566;9.980;2023-11-22T07:20:27;11.13;;;6.28;;
20462;SDS011;10390;53.566;9.980;2023-11-22T07:22:53;10.88;;;6.53;;
20462;SDS011;10390;53.566;9.980;2023-11-22T07:25:22;11.05;;;6.03;;
20462;SDS011;10390;53.566;9.980;2023-11-22T07:27:50;14.27;;;6.72;;
20462;SDS011;10390;53.566;9.980;2023-11-22T07:30:16;11.32;;;6.35;;
20462;SDS011;10390;53.566;9.980;2023-11-22T07:32:45;11.98;;;6.28;;
20462;SDS011;10390;53.566;9.980;2023-11-22T07:35:11;9.77;;;5.68;;
20462;SDS011;10390;53.566;9.980;2023-11-22T07:37:40;10.30;;;6.55;;
20462;SDS011;10390;53.566;9.980;2023-11-22T07:40:08;9.77;;;5.80;;
20462;SDS011;10390;53.566;9.980;2023-11-22T07:42:37;10.35;;;5.90;;
20462;SDS011;10390;53.566;9.980;2023-11-22T07:45:03;13.25;;;6.85;;
20462;SDS011;10390;53.566;9.980;2023-11-22T07:47:30;9.77;;;5.70;;
20462;SDS011;10390;53.566;9.980;2023-11-22T07:49:56;10.77;;;6.20;;
20462;SDS011;10390;53.566;9.980;2023-11-22T07:52:22;8.77;;;5.95;;
20462;SDS011;10390;53.566;9.980;2023-11-22T07:54:54;9.85;;;5.93;;
20462;SDS011;10390;53.566;9.980;2023-11-22T07:57:24;11.27;;;6.40;;
20462;SDS011;10390;53.566;9.980;2023-11-22T07:59:50;10.45;;;6.63;;
20462;SDS011;10390;53.566;9.980;2023-11-22T08:02:19;11.63;;;6.10;;
20462;SDS011;10390;53.566;9.980;2023-11-22T08:04:45;9.02;;;6.75;;
20462;SDS011;10390;53.566;9.980;2023-11-22T08:07:13;9.30;;;6.00;;
20462;SDS011;10390;53.566;9.980;2023-11-22T08:09:40;9.70;;;6.65;;
20462;SDS011;10390;53.566;9.980;2023-11-22T08:12:06;12.23;;;6.47;;
20462;SDS011;10390;53.566;9.980;2023-11-22T08:14:32;12.60;;;6.25;;
20462;SDS011;10390;53.566;9.980;2023-11-22T08:16:58;9.98;;;6.55;;
20462;SDS011;10390;53.566;9.980;2023-11-22T08:19:24;9.73;;;6.80;;
20462;SDS011;10390;53.566;9.980;2023-11-22T08:21:50;11.65;;;8.25;;
20462;SDS011;10390;53.566;9.980;2023-11-22T08:24:16;11.07;;;6.65;;
20462;SDS011;10390;53.566;9.980;2023-11-22T08:26:41;9.88;;;6.53;;
20462;SDS011;10390;53.566;9.980;2023-11-22T08:29:07;13.02;;;6.95;;
20462;SDS011;10390;53.566;9.980;2023-11-22T08:31:33;10.85;;;6.68;;
20462;SDS011;10390;53.566;9.980;2023-11-22T08:34:01;10.45;;;6.72;;
20462;SDS011;10390;53.566;9.980;2023-11-22T08:36:29;9.38;;;6.90;;
20462;SDS011;10390;53.566;9.980;2023-11-22T08:38:56;9.25;;;6.65;;
20462;SDS011;10390;53.566;9.980;2023-11-22T08:41:24;10.45;;;6.53;;
20462;SDS011;10390;53.566;9.980;2023-11-22T08:43:50;12.50;;;6.70;;
20462;SDS011;10390;53.566;9.980;2023-11-22T08:46:16;8.55;;;5.97;;
20462;SDS011;10390;53.566;9.980;2023-11-22T08:48:41;9.90;;;6.80;;
20462;SDS011;10390;53.566;9.980;2023-11-22T08:51:07;9.90;;;6.75;;
20462;SDS011;10390;53.566;9.980;2023-11-22T08:53:32;10.80;;;7.07;;
20462;SDS011;10390;53.566;9.980;2023-11-22T08:55:58;11.68;;;6.70;;
20462;SDS011;10390;53.566;9.980;2023-11-22T08:58:24;8.23;;;6.10;;
20462;SDS011;10390;53.566;9.980;2023-11-22T09:00:50;11.18;;;6.85;;
20462;SDS011;10390;53.566;9.980;2023-11-22T09:03:16;12.07;;;7.35;;
20462;SDS011;10390;53.566;9.980;2023-11-22T09:05:42;9.02;;;6.95;;
20462;SDS011;10390;53.566;9.980;2023-11-22T09:08:08;9.70;;;6.30;;
20462;SDS011;10390;53.566;9.980;2023-11-22T09:10:40;9.23;;;6.38;;
20462;SDS011;10390;53.566;9.980;2023-11-22T09:13:09;10.38;;;6.82;;
20462;SDS011;10390;53.566;9.980;2023-11-22T09:15:35;8.70;;;6.68;;
20462;SDS011;10390;53.566;9.980;2023-11-22T09:18:03;11.73;;;6.85;;
20462;SDS011;10390;53.566;9.980;2023-11-22T09:20:30;9.43;;;6.63;;
20462;SDS011;10390;53.566;9.980;2023-11-22T09:22:55;10.50;;;6.95;;
20462;SDS011;10390;53.566;9.980;2023-11-22T09:25:22;9.45;;;6.53;;
20462;SDS011;10390;53.566;9.980;2023-11-22T09:27:53;9.43;;;6.88;;
20462;SDS011;10390;53.566;9.980;2023-11-22T09:30:26;12.88;;;7.10;;
20462;SDS011;10390;53.566;9.980;2023-11-22T09:33:14;11.48;;;7.20;;
20462;SDS011;10390;53.566;9.980;2023-11-22T09:35:41;12.52;;;7.15;;
20462;SDS011;10390;53.566;9.980;2023-11-22T09:38:08;9.40;;;7.13;;
20462;SDS011;10390;53.566;9.980;2023-11-22T09:40:39;12.65;;;6.63;;
20462;SDS011;10390;53.566;9.980;2023-11-22T09:43:06;10.10;;;6.63;;
20462;SDS011;10390;53.566;9.980;2023-11-22T09:45:32;11.85;;;7.65;;
20462;SDS011;10390;53.566;9.980;2023-11-22T09:47:58;13.15;;;6.80;;
20462;SDS011;10390;53.566;9.980;2023-11-22T09:50:43;10.65;;;6.85;;
20462;SDS011;10390;53.566;9.980;2023-11-22T09:53:14;11.85;;;7.38;;
20462;SDS011;10390;53.566;9.980;2023-11-22T09:55:54;10.48;;;6.90;;
20462;SDS011;10390;53.566;9.980;2023-11-22T09:58:20;9.00;;;6.57;;
20462;SDS011;10390;53.566;9.980;2023-11-22T10:00:46;9.13;;;7.07;;
20462;SDS011;10390;53.566;9.980;2023-11-22T10:03:12;10.48;;;7.60;;
20462;SDS011;10390;53.566;9.980;2023-11-22T10:05:42;9.18;;;6.95;;
20462;SDS011;10390;53.566;9.980;2023-11-22T10:08:08;9.88;;;6.82;;
20462;SDS011;10390;53.566;9.980;2023-11-22T10:10:34;9.65;;;7.10;;
20462;SDS011;10390;53.566;9.980;2023-11-22T10:13:01;9.57;;;7.18;;
20462;SDS011;10390;53.566;9.980;2023-11-22T10:15:28;9.38;;;7.18;;
20462;SDS011;10390;53.566;9.980;2023-11-22T10:17:55;8.93;;;6.97;;
20462;SDS011;10390;53.566;9.980;2023-11-22T10:20:23;11.38;;;7.30;;
20462;SDS011;10390;53.566;9.980;2023-11-22T10:22:50;8.82;;;7.47;;
20462;SDS011;10390;53.566;9.980;2023-11-22T10:25:17;8.38;;;7.40;;
20462;SDS011;10390;53.566;9.980;2023-11-22T10:27:44;10.15;;;7.95;;
20462;SDS011;10390;53.566;9.980;2023-11-22T10:30:13;8.05;;;6.53;;
20462;SDS011;10390;53.566;9.980;2023-11-22T10:32:42;9.23;;;7.00;;
20462;SDS011;10390;53.566;9.980;2023-11-22T10:35:07;8.27;;;6.93;;
20462;SDS011;10390;53.566;9.980;2023-11-22T10:37:34;8.38;;;7.00;;
20462;SDS011;10390;53.566;9.980;2023-11-22T10:40:04;8.80;;;7.22;;
20462;SDS011;10390;53.566;9.980;2023-11-22T10:42:31;7.97;;;7.18;;
20462;SDS011;10390;53.566;9.980;2023-11-22T10:44:58;8.73;;;7.20;;
20462;SDS011;10390;53.566;9.980;2023-11-22T10:47:28;8.85;;;6.93;;
20462;SDS011;10390;53.566;9.980;2023-11-22T10:49:55;10.70;;;6.72;;
20462;SDS011;10390;53.566;9.980;2023-11-22T10:52:21;9.20;;;7.15;;
20462;SDS011;10390;53.566;9.980;2023-11-22T10:54:52;9.90;;;6.82;;
20462;SDS011;10390;53.566;9.980;2023-11-22T10:57:24;8.43;;;7.07;;
20462;SDS011;10390;53.566;9.980;2023-11-22T10:59:53;8.30;;;7.28;;
20462;SDS011;10390;53.566;9.980;2023-11-22T11:02:21;8.60;;;6.95;;
20462;SDS011;10390;53.566;9.980;2023-11-22T11:04:52;9.25;;;6.82;;
20462;SDS011;10390;53.566;9.980;2023-11-22T11:07:23;9.60;;;6.55;;
20462;SDS011;10390;53.566;9.980;2023-11-22T11:09:52;8.60;;;7.70;;
20462;SDS011;10390;53.566;9.980;2023-11-22T11:12:19;8.80;;;6.75;;
20462;SDS011;10390;53.566;9.980;2023-11-22T11:14:46;9.90;;;6.95;;
20462;SDS011;10390;53.566;9.980;2023-11-22T11:17:12;9.35;;;6.57;;
20462;SDS011;10390;53.566;9.980;2023-11-22T11:19:39;9.55;;;6.85;;
20462;SDS011;10390;53.566;9.980;2023-11-22T11:22:09;7.93;;;6.63;;
20462;SDS011;10390;53.566;9.980;2023-11-22T11:24:39;8.65;;;6.40;;
20462;SDS011;10390;53.566;9.980;2023-11-22T11:27:06;7.97;;;6.95;;
20462;SDS011;10390;53.566;9.980;2023-11-22T11:29:32;7.50;;;6.30;;
20462;SDS011;10390;53.566;9.980;2023-11-22T11:31:59;9.05;;;7.18;;
20462;SDS011;10390;53.566;9.980;2023-11-22T11:34:27;7.22;;;6.53;;
20462;SDS011;10390;53.566;9.980;2023-11-22T11:36:54;8.50;;;6.68;;
20462;SDS011;10390;53.566;9.980;2023-11-22T11:39:24;7.57;;;6.78;;
20462;SDS011;10390;53.566;9.980;2023-11-22T11:42:14;7.18;;;6.47;;
20462;SDS011;10390;53.566;9.980;2023-11-22T11:44:50;7.15;;;6.43;;
20462;SDS011;10390;53.566;9.980;2023-11-22T11:47:27;7.22;;;6.53;;
20462;SDS011;10390;53.566;9.980;2023-11-22T11:49:54;7.70;;;6.15;;
20462;SDS011;10390;53.566;9.980;2023-11-22T11:52:21;7.07;;;6.22;;
20462;SDS011;10390;53.566;9.980;2023-11-22T11:54:46;7.57;;;6.78;;
20462;SDS011;10390;53.566;9.980;2023-11-22T11:57:12;7.90;;;7.10;;
20462;SDS011;10390;53.566;9.980;2023-11-22T11:59:38;7.32;;;6.60;;
20462;SDS011;10390;53.566;9.980;2023-11-22T12:02:03;7.70;;;6.90;;
20462;SDS011;10390;53.566;9.980;2023-11-22T12:04:31;7.25;;;6.55;;
20462;SDS011;10390;53.566;9.980;2023-11-22T12:07:00;7.07;;;6.10;;
20462;SDS011;10390;53.566;9.980;2023-11-22T12:09:26;6.85;;;6.18;;
20462;SDS011;10390;53.566;9.980;2023-11-22T12:11:54;8.45;;;7.13;;
20462;SDS011;10390;53.566;9.980;2023-11-22T12:14:20;7.53;;;6.72;;
20462;SDS011;10390;53.566;9.980;2023-11-22T12:16:47;8.50;;;6.72;;
20462;SDS011;10390;53.566;9.980;2023-11-22T12:19:22;6.65;;;5.95;;
20462;SDS011;10390;53.566;9.980;2023-11-22T12:21:49;7.40;;;6.47;;
20462;SDS011;10390;53.566;9.980;2023-11-22T12:24:15;8.15;;;6.75;;
20462;SDS011;10390;53.566;9.980;2023-11-22T12:26:44;8.80;;;6.18;;
20462;SDS011;10390;53.566;9.980;2023-11-22T12:29:15;7.47;;;6.05;;
20462;SDS011;10390;53.566;9.980;2023-11-22T12:31:46;8.20;;;6.38;;
20462;SDS011;10390;53.566;9.980;2023-11-22T12:34:15;10.05;;;6.68;;
20462;SDS011;10390;53.566;9.980;2023-11-22T12:36:42;7.88;;;6.40;;
20462;SDS011;10390;53.566;9.980;2023-11-22T12:39:09;7.00;;;6.00;;
20462;SDS011;10390;53.566;9.980;2023-11-22T12:41:45;9.27;;;6.45;;
20462;SDS011;10390;53.566;9.980;2023-11-22T12:44:15;8.93;;;6.10;;
20462;SDS011;10390;53.566;9.980;2023-11-22T12:46:59;8.27;;;6.45;;
20462;SDS011;10390;53.566;9.980;2023-11-22T12:49:29;6.70;;;6.00;;
20462;SDS011;10390;53.566;9.980;2023-11-22T12:51:56;8.05;;;6.05;;
20462;SDS011;10390;53.566;9.980;2023-11-22T12:54:22;7.15;;;6.13;;
20462;SDS011;10390;53.566;9.980;2023-11-22T12:56:51;8.27;;;5.93;;
20462;SDS011;10390;53.566;9.980;2023-11-22T12:59:22;7.32;;;5.90;;
20462;SDS011;10390;53.566;9.980;2023-11-22T13:01:48;8.02;;;5.90;;
20462;SDS011;10390;53.566;9.980;2023-11-22T13:04:14;7.28;;;6.28;;
20462;SDS011;10390;53.566;9.980;2023-11-22T13:06:40;7.07;;;6.38;;
20462;SDS011;10390;53.566;9.980;2023-11-22T13:09:07;6.28;;;5.68;;
20462;SDS011;10390;53.566;9.980;2023-11-22T13:11:39;7.30;;;6.20;;
20462;SDS011;10390;53.566;9.980;2023-11-22T13:14:06;8.05;;;6.30;;
20462;SDS011;10390;53.566;9.980;2023-11-22T13:16:31;7.57;;;6.40;;
20462;SDS011;10390;53.566;9.980;2023-11-22T13:18:59;6.50;;;5.78;;
20462;SDS011;10390;53.566;9.980;2023-11-22T13:21:24;7.00;;;6.30;;
20462;SDS011;10390;53.566;9.980;2023-11-22T13:23:50;9.23;;;6.55;;
20462;SDS011;10390;53.566;9.980;2023-11-22T13:26:16;7.70;;;6.00;;
20462;SDS011;10390;53.566;9.980;2023-11-22T13:28:41;7.47;;;5.93;;
20462;SDS011;10390;53.566;9.980;2023-11-22T13:31:07;8.73;;;6.30;;
20462;SDS011;10390;53.566;9.980;2023-11-22T13:33:33;12.98;;;7.13;;
20462;SDS011;10390;53.566;9.980;2023-11-22T13:35:59;8.80;;;6.57;;
20462;SDS011;10390;53.566;9.980;2023-11-22T13:38:25;9.02;;;7.50;;
20462;SDS011;10390;53.566;9.980;2023-11-22T13:40:50;16.33;;;9.00;;
20462;SDS011;10390;53.566;9.980;2023-11-22T13:43:17;16.67;;;10.25;;
20462;SDS011;10390;53.566;9.980;2023-11-22T13:45:44;22.35;;;12.50;;
20462;SDS011;10390;53.566;9.980;2023-11-22T13:48:10;25.75;;;15.05;;
20462;SDS011;10390;53.566;9.980;2023-11-22T13:50:36;26.17;;;16.75;;
20462;SDS011;10390;53.566;9.980;2023-11-22T13:53:02;32.50;;;18.13;;
20462;SDS011;10390;53.566;9.980;2023-11-22T13:55:29;36.88;;;21.15;;
20462;SDS011;10390;53.566;9.980;2023-11-22T13:57:56;42.83;;;22.73;;
20462;SDS011;10390;53.566;9.980;2023-11-22T14:00:24;40.30;;;24.10;;
20462;SDS011;10390;53.566;9.980;2023-11-22T14:02:54;48.22;;;28.30;;
20462;SDS011;10390;53.566;9.980;2023-11-22T14:05:21;51.33;;;30.33;;
20462;SDS011;10390;53.566;9.980;2023-11-22T14:07:51;58.10;;;33.40;;
20462;SDS011;10390;53.566;9.980;2023-11-22T14:10:17;58.83;;;34.53;;
20462;SDS011;10390;53.566;9.980;2023-11-22T14:12:43;56.97;;;34.15;;
20462;SDS011;10390;53.566;9.980;2023-11-22T14:15:11;63.67;;;36.45;;
20462;SDS011;10390;53.566;9.980;2023-11-22T14:17:37;61.47;;;35.55;;
20462;SDS011;10390;53.566;9.980;2023-11-22T14:20:04;64.82;;;36.83;;
20462;SDS011;10390;53.566;9.980;2023-11-22T14:22:32;74.82;;;41.63;;
20462;SDS011;10390;53.566;9.980;2023-11-22T14:24:58;76.25;;;41.83;;
20462;SDS011;10390;53.566;9.980;2023-11-22T14:27:24;73.22;;;43.15;;
20462;SDS011;10390;53.566;9.980;2023-11-22T14:29:50;70.97;;;40.08;;
20462;SDS011;10390;53.566;9.980;2023-11-22T14:32:18;67.55;;;39.33;;
20462;SDS011;10390;53.566;9.980;2023-11-22T14:34:45;70.90;;;41.10;;
20462;SDS011;10390;53.566;9.980;2023-11-22T14:37:12;74.72;;;39.47;;
20462;SDS011;10390;53.566;9.980;2023-11-22T14:39:38;67.15;;;39.42;;
20462;SDS011;10390;53.566;9.980;2023-11-22T14:42:05;76.03;;;44.03;;